Accueil
METAR-TAF:

METAR-TAF

Aéroports :

Aéroport international Galileo-Galilei de Pise

Pise, Italie

latitude: 43-41N, longitude: 010-23E, altitude: 2 m

Observation

Le bulletin a été fait il y a 41 minutes, à 00:45 UTC
Vent 3 kt de sud-est
Température 15°C
Humidité 100%
Pression 1013 hPa
Visibilité 10 km ou plus
pas de nuages en-dessous de 1500 mètres et pas de cumulonimbus.

METAR: LIRP 210045Z 13003KT CAVOK 15/15 Q1013 NOSIG

Heure: 03:26 (01:26 UTC)

Prévision

Le bulletin a été fait il y a 2 heures et 26 minutes, à 23:00 UTC
Prévision valable du 21 à 00 UTC au 21 à 24 UTC
Vent 10 kt de est/sud-est
Visibilité 10 km ou plus
Nuages épars à une hauteur de 4000 ft
Temporairement
du 21 à 12 UTC au 21 à 24 UTC
Visibilité: 5000 m
Quelques nuages à une hauteur de 2000 ft, Cumulonimbus.
Nuages fragmentés à une hauteur de 4000 ft
orage, pluie

TAF: LIRP 202300Z 2100/2124 12010KT 9999 SCT040 TEMPO 2112/2124 5000 TSRA FEW020CB BKN040

Observations et prévisions météorologiques de plus de 4000 aéroports (messages METAR et TAF).

Les stations disponibles sont représentées par des disques jaunes et rouges sur la carte.

Passer la souris dessus pour voir le nom de la station.

Cliquer dessus pour voir les observations et prévisions météorologiques.

Pour changer de carte: cliquez sur les boutons verts avec une croix noire pour zoomer, sur le bouton vert avec un tiret pour effectuer un zoom arrière, ou sur les flèches vertes pour les cartes adjacentes.


METAR-TAF: